sensor_id;sensor_type;location;lat;lon;timestamp;P1;durP1;ratioP1;P2;durP2;ratioP2
12635;SDS011;6383;50.830;7.210;2023-09-12T00:01:30;12.00;;;8.90;;
12635;SDS011;6383;50.830;7.210;2023-09-12T00:04:00;14.35;;;8.10;;
12635;SDS011;6383;50.830;7.210;2023-09-12T00:06:29;14.30;;;8.80;;
12635;SDS011;6383;50.830;7.210;2023-09-12T00:08:58;11.73;;;8.50;;
12635;SDS011;6383;50.830;7.210;2023-09-12T00:11:25;14.00;;;8.30;;
12635;SDS011;6383;50.830;7.210;2023-09-12T00:13:54;19.27;;;9.10;;
12635;SDS011;6383;50.830;7.210;2023-09-12T00:16:23;9.75;;;7.70;;
12635;SDS011;6383;50.830;7.210;2023-09-12T00:18:52;11.25;;;7.72;;
12635;SDS011;6383;50.830;7.210;2023-09-12T00:21:21;12.97;;;8.17;;
12635;SDS011;6383;50.830;7.210;2023-09-12T00:23:50;11.20;;;8.50;;
12635;SDS011;6383;50.830;7.210;2023-09-12T00:26:19;12.57;;;8.50;;
12635;SDS011;6383;50.830;7.210;2023-09-12T00:28:47;13.03;;;9.47;;
12635;SDS011;6383;50.830;7.210;2023-09-12T00:31:15;13.20;;;8.80;;
12635;SDS011;6383;50.830;7.210;2023-09-12T00:33:44;13.45;;;8.88;;
12635;SDS011;6383;50.830;7.210;2023-09-12T00:36:12;13.05;;;8.43;;
12635;SDS011;6383;50.830;7.210;2023-09-12T00:38:40;13.80;;;8.27;;
12635;SDS011;6383;50.830;7.210;2023-09-12T00:41:08;13.57;;;8.13;;
12635;SDS011;6383;50.830;7.210;2023-09-12T00:43:37;14.85;;;8.80;;
12635;SDS011;6383;50.830;7.210;2023-09-12T00:46:06;11.50;;;8.45;;
12635;SDS011;6383;50.830;7.210;2023-09-12T00:48:34;13.80;;;8.65;;
12635;SDS011;6383;50.830;7.210;2023-09-12T00:51:07;13.27;;;8.43;;
12635;SDS011;6383;50.830;7.210;2023-09-12T00:53:39;13.33;;;8.50;;
12635;SDS011;6383;50.830;7.210;2023-09-12T00:56:08;15.07;;;8.23;;
12635;SDS011;6383;50.830;7.210;2023-09-12T00:58:38;11.48;;;7.72;;
12635;SDS011;6383;50.830;7.210;2023-09-12T01:01:07;14.20;;;8.40;;
12635;SDS011;6383;50.830;7.210;2023-09-12T01:03:36;11.63;;;7.85;;
12635;SDS011;6383;50.830;7.210;2023-09-12T01:06:07;14.20;;;7.70;;
12635;SDS011;6383;50.830;7.210;2023-09-12T01:08:37;13.13;;;7.88;;
12635;SDS011;6383;50.830;7.210;2023-09-12T01:11:06;12.07;;;7.50;;
12635;SDS011;6383;50.830;7.210;2023-09-12T01:13:34;13.80;;;7.57;;
12635;SDS011;6383;50.830;7.210;2023-09-12T01:16:03;12.73;;;7.23;;
12635;SDS011;6383;50.830;7.210;2023-09-12T01:18:30;11.40;;;7.50;;
12635;SDS011;6383;50.830;7.210;2023-09-12T01:21:04;11.80;;;7.60;;
12635;SDS011;6383;50.830;7.210;2023-09-12T01:23:55;9.97;;;7.90;;
12635;SDS011;6383;50.830;7.210;2023-09-12T01:26:41;9.35;;;7.47;;
12635;SDS011;6383;50.830;7.210;2023-09-12T01:29:17;14.30;;;7.53;;
12635;SDS011;6383;50.830;7.210;2023-09-12T01:31:50;9.05;;;7.20;;
12635;SDS011;6383;50.830;7.210;2023-09-12T01:34:19;10.05;;;7.25;;
12635;SDS011;6383;50.830;7.210;2023-09-12T01:36:47;10.57;;;7.28;;
12635;SDS011;6383;50.830;7.210;2023-09-12T01:39:14;10.98;;;7.28;;
12635;SDS011;6383;50.830;7.210;2023-09-12T01:41:42;10.88;;;7.47;;
12635;SDS011;6383;50.830;7.210;2023-09-12T01:44:13;13.48;;;7.32;;
12635;SDS011;6383;50.830;7.210;2023-09-12T01:46:44;9.77;;;7.47;;
12635;SDS011;6383;50.830;7.210;2023-09-12T01:49:15;10.37;;;7.10;;
12635;SDS011;6383;50.830;7.210;2023-09-12T01:51:48;10.18;;;7.75;;
12635;SDS011;6383;50.830;7.210;2023-09-12T01:54:17;13.73;;;8.05;;
12635;SDS011;6383;50.830;7.210;2023-09-12T01:56:46;11.93;;;7.43;;
12635;SDS011;6383;50.830;7.210;2023-09-12T01:59:16;8.93;;;6.95;;
12635;SDS011;6383;50.830;7.210;2023-09-12T02:01:47;9.95;;;7.18;;
12635;SDS011;6383;50.830;7.210;2023-09-12T02:04:14;15.85;;;7.15;;
12635;SDS011;6383;50.830;7.210;2023-09-12T02:06:43;8.23;;;6.50;;
12635;SDS011;6383;50.830;7.210;2023-09-12T02:09:12;9.85;;;6.82;;
12635;SDS011;6383;50.830;7.210;2023-09-12T02:11:40;8.32;;;6.07;;
12635;SDS011;6383;50.830;7.210;2023-09-12T02:14:09;9.70;;;6.43;;
12635;SDS011;6383;50.830;7.210;2023-09-12T02:16:38;12.77;;;6.57;;
12635;SDS011;6383;50.830;7.210;2023-09-12T02:19:09;14.07;;;6.27;;
12635;SDS011;6383;50.830;7.210;2023-09-12T02:21:38;7.47;;;5.85;;
12635;SDS011;6383;50.830;7.210;2023-09-12T02:24:07;11.00;;;6.43;;
12635;SDS011;6383;50.830;7.210;2023-09-12T02:26:36;8.15;;;6.05;;
12635;SDS011;6383;50.830;7.210;2023-09-12T02:29:05;7.70;;;5.68;;
12635;SDS011;6383;50.830;7.210;2023-09-12T02:31:33;9.03;;;6.50;;
12635;SDS011;6383;50.830;7.210;2023-09-12T02:34:00;11.75;;;6.57;;
12635;SDS011;6383;50.830;7.210;2023-09-12T02:36:31;9.13;;;6.38;;
12635;SDS011;6383;50.830;7.210;2023-09-12T02:39:00;6.90;;;5.33;;
12635;SDS011;6383;50.830;7.210;2023-09-12T02:41:30;8.10;;;6.25;;
12635;SDS011;6383;50.830;7.210;2023-09-12T02:43:58;8.57;;;6.20;;
12635;SDS011;6383;50.830;7.210;2023-09-12T02:46:26;7.80;;;6.28;;
12635;SDS011;6383;50.830;7.210;2023-09-12T02:48:54;12.27;;;6.63;;
12635;SDS011;6383;50.830;7.210;2023-09-12T02:51:24;10.95;;;6.50;;
12635;SDS011;6383;50.830;7.210;2023-09-12T02:53:53;10.60;;;6.82;;
12635;SDS011;6383;50.830;7.210;2023-09-12T02:56:22;8.35;;;6.63;;
12635;SDS011;6383;50.830;7.210;2023-09-12T02:58:51;9.52;;;6.75;;
12635;SDS011;6383;50.830;7.210;2023-09-12T03:01:20;10.60;;;7.10;;
12635;SDS011;6383;50.830;7.210;2023-09-12T03:03:47;8.43;;;6.72;;
12635;SDS011;6383;50.830;7.210;2023-09-12T03:09:42;8.35;;;6.32;;
12635;SDS011;6383;50.830;7.210;2023-09-12T03:12:11;10.57;;;6.95;;
12635;SDS011;6383;50.830;7.210;2023-09-12T03:18:02;9.50;;;6.65;;
12635;SDS011;6383;50.830;7.210;2023-09-12T03:20:30;10.23;;;6.67;;
12635;SDS011;6383;50.830;7.210;2023-09-12T03:22:59;9.52;;;6.55;;
12635;SDS011;6383;50.830;7.210;2023-09-12T03:25:30;9.15;;;6.80;;
12635;SDS011;6383;50.830;7.210;2023-09-12T03:27:57;8.35;;;6.65;;
12635;SDS011;6383;50.830;7.210;2023-09-12T03:30:27;12.35;;;6.68;;
12635;SDS011;6383;50.830;7.210;2023-09-12T03:32:55;8.98;;;7.07;;
12635;SDS011;6383;50.830;7.210;2023-09-12T03:35:24;10.88;;;7.05;;
12635;SDS011;6383;50.830;7.210;2023-09-12T03:37:54;9.25;;;7.00;;
12635;SDS011;6383;50.830;7.210;2023-09-12T03:40:23;9.23;;;6.75;;
12635;SDS011;6383;50.830;7.210;2023-09-12T03:42:53;7.85;;;7.00;;
12635;SDS011;6383;50.830;7.210;2023-09-12T03:45:22;10.35;;;6.95;;
12635;SDS011;6383;50.830;7.210;2023-09-12T03:47:52;8.30;;;6.65;;
12635;SDS011;6383;50.830;7.210;2023-09-12T03:50:20;10.40;;;7.00;;
12635;SDS011;6383;50.830;7.210;2023-09-12T03:52:48;9.70;;;6.53;;
12635;SDS011;6383;50.830;7.210;2023-09-12T03:55:18;11.20;;;6.00;;
12635;SDS011;6383;50.830;7.210;2023-09-12T03:57:47;11.47;;;6.70;;
12635;SDS011;6383;50.830;7.210;2023-09-12T04:00:16;11.07;;;6.43;;
12635;SDS011;6383;50.830;7.210;2023-09-12T04:02:45;10.10;;;6.90;;
12635;SDS011;6383;50.830;7.210;2023-09-12T04:05:14;9.00;;;7.13;;
12635;SDS011;6383;50.830;7.210;2023-09-12T04:07:43;8.32;;;6.53;;
12635;SDS011;6383;50.830;7.210;2023-09-12T04:10:12;11.50;;;6.95;;
12635;SDS011;6383;50.830;7.210;2023-09-12T04:12:41;10.07;;;7.07;;
12635;SDS011;6383;50.830;7.210;2023-09-12T04:15:10;10.02;;;6.97;;
12635;SDS011;6383;50.830;7.210;2023-09-12T04:17:40;9.25;;;6.43;;
12635;SDS011;6383;50.830;7.210;2023-09-12T04:20:08;11.07;;;6.80;;
12635;SDS011;6383;50.830;7.210;2023-09-12T04:22:39;8.60;;;6.55;;
12635;SDS011;6383;50.830;7.210;2023-09-12T04:25:07;9.53;;;6.60;;
12635;SDS011;6383;50.830;7.210;2023-09-12T04:27:37;10.57;;;7.05;;
12635;SDS011;6383;50.830;7.210;2023-09-12T04:30:06;7.83;;;6.37;;
12635;SDS011;6383;50.830;7.210;2023-09-12T04:32:36;9.25;;;6.60;;
12635;SDS011;6383;50.830;7.210;2023-09-12T04:35:05;6.93;;;5.80;;
12635;SDS011;6383;50.830;7.210;2023-09-12T04:37:33;7.77;;;6.90;;
12635;SDS011;6383;50.830;7.210;2023-09-12T04:40:01;9.88;;;7.00;;
12635;SDS011;6383;50.830;7.210;2023-09-12T04:42:31;11.13;;;7.35;;
12635;SDS011;6383;50.830;7.210;2023-09-12T04:44:59;10.98;;;7.50;;
12635;SDS011;6383;50.830;7.210;2023-09-12T04:47:28;13.13;;;7.40;;
12635;SDS011;6383;50.830;7.210;2023-09-12T04:49:57;9.13;;;7.87;;
12635;SDS011;6383;50.830;7.210;2023-09-12T04:52:29;16.25;;;8.43;;
12635;SDS011;6383;50.830;7.210;2023-09-12T04:54:58;10.93;;;8.13;;
12635;SDS011;6383;50.830;7.210;2023-09-12T04:57:27;9.50;;;7.88;;
12635;SDS011;6383;50.830;7.210;2023-09-12T04:59:58;11.30;;;8.40;;
12635;SDS011;6383;50.830;7.210;2023-09-12T05:02:26;12.10;;;8.85;;
12635;SDS011;6383;50.830;7.210;2023-09-12T05:04:54;11.23;;;8.60;;
12635;SDS011;6383;50.830;7.210;2023-09-12T05:07:23;11.98;;;9.18;;
12635;SDS011;6383;50.830;7.210;2023-09-12T05:09:51;10.45;;;8.73;;
12635;SDS011;6383;50.830;7.210;2023-09-12T05:12:19;10.93;;;9.10;;
12635;SDS011;6383;50.830;7.210;2023-09-12T05:14:48;11.07;;;8.65;;
12635;SDS011;6383;50.830;7.210;2023-09-12T05:17:17;13.73;;;8.85;;
12635;SDS011;6383;50.830;7.210;2023-09-12T05:19:47;12.40;;;9.82;;
12635;SDS011;6383;50.830;7.210;2023-09-12T05:22:16;13.50;;;9.30;;
12635;SDS011;6383;50.830;7.210;2023-09-12T05:24:45;11.55;;;8.55;;
12635;SDS011;6383;50.830;7.210;2023-09-12T05:27:16;13.17;;;9.03;;
12635;SDS011;6383;50.830;7.210;2023-09-12T05:29:46;11.82;;;9.43;;
12635;SDS011;6383;50.830;7.210;2023-09-12T05:32:14;15.10;;;9.35;;
12635;SDS011;6383;50.830;7.210;2023-09-12T05:34:46;14.10;;;9.50;;
12635;SDS011;6383;50.830;7.210;2023-09-12T05:37:17;12.23;;;8.45;;
12635;SDS011;6383;50.830;7.210;2023-09-12T05:39:48;14.80;;;8.80;;
12635;SDS011;6383;50.830;7.210;2023-09-12T05:42:18;15.68;;;9.18;;
12635;SDS011;6383;50.830;7.210;2023-09-12T05:44:48;15.07;;;9.02;;
12635;SDS011;6383;50.830;7.210;2023-09-12T05:47:18;13.20;;;11.02;;
12635;SDS011;6383;50.830;7.210;2023-09-12T05:49:47;15.15;;;10.50;;
12635;SDS011;6383;50.830;7.210;2023-09-12T05:52:16;15.93;;;10.32;;
12635;SDS011;6383;50.830;7.210;2023-09-12T05:54:46;11.90;;;9.70;;
12635;SDS011;6383;50.830;7.210;2023-09-12T05:57:19;16.98;;;10.02;;
12635;SDS011;6383;50.830;7.210;2023-09-12T05:59:46;13.73;;;10.43;;
12635;SDS011;6383;50.830;7.210;2023-09-12T06:02:14;14.13;;;9.73;;
12635;SDS011;6383;50.830;7.210;2023-09-12T06:04:44;15.82;;;10.80;;
12635;SDS011;6383;50.830;7.210;2023-09-12T06:07:14;17.88;;;10.27;;
12635;SDS011;6383;50.830;7.210;2023-09-12T06:09:46;15.27;;;10.25;;
12635;SDS011;6383;50.830;7.210;2023-09-12T06:12:22;15.90;;;10.30;;
12635;SDS011;6383;50.830;7.210;2023-09-12T06:15:21;17.30;;;10.43;;
12635;SDS011;6383;50.830;7.210;2023-09-12T06:18:31;12.38;;;10.98;;
12635;SDS011;6383;50.830;7.210;2023-09-12T06:21:00;16.48;;;9.80;;
12635;SDS011;6383;50.830;7.210;2023-09-12T06:23:30;22.30;;;10.15;;
12635;SDS011;6383;50.830;7.210;2023-09-12T06:25:58;16.73;;;10.02;;
12635;SDS011;6383;50.830;7.210;2023-09-12T06:28:29;16.30;;;9.73;;
12635;SDS011;6383;50.830;7.210;2023-09-12T06:30:58;16.48;;;10.35;;
12635;SDS011;6383;50.830;7.210;2023-09-12T06:33:27;14.38;;;10.38;;
12635;SDS011;6383;50.830;7.210;2023-09-12T06:35:56;20.40;;;10.88;;
12635;SDS011;6383;50.830;7.210;2023-09-12T06:38:25;14.73;;;10.18;;
12635;SDS011;6383;50.830;7.210;2023-09-12T06:40:56;14.73;;;10.40;;
12635;SDS011;6383;50.830;7.210;2023-09-12T06:43:26;14.52;;;10.27;;
12635;SDS011;6383;50.830;7.210;2023-09-12T06:45:56;16.60;;;10.43;;
12635;SDS011;6383;50.830;7.210;2023-09-12T06:48:25;12.40;;;9.77;;
12635;SDS011;6383;50.830;7.210;2023-09-12T06:50:54;16.48;;;10.57;;
12635;SDS011;6383;50.830;7.210;2023-09-12T06:53:23;17.13;;;10.23;;
12635;SDS011;6383;50.830;7.210;2023-09-12T06:55:52;16.55;;;11.00;;
12635;SDS011;6383;50.830;7.210;2023-09-12T06:58:20;12.38;;;9.70;;
12635;SDS011;6383;50.830;7.210;2023-09-12T07:00:49;17.42;;;11.15;;
12635;SDS011;6383;50.830;7.210;2023-09-12T07:03:19;11.77;;;10.25;;
12635;SDS011;6383;50.830;7.210;2023-09-12T07:05:48;16.67;;;11.10;;
12635;SDS011;6383;50.830;7.210;2023-09-12T07:08:17;14.88;;;10.93;;
12635;SDS011;6383;50.830;7.210;2023-09-12T07:10:45;13.38;;;10.65;;
12635;SDS011;6383;50.830;7.210;2023-09-12T07:13:12;15.73;;;11.77;;
12635;SDS011;6383;50.830;7.210;2023-09-12T07:15:39;16.48;;;11.95;;
12635;SDS011;6383;50.830;7.210;2023-09-12T07:18:08;16.75;;;12.18;;
12635;SDS011;6383;50.830;7.210;2023-09-12T07:20:39;14.05;;;11.10;;
12635;SDS011;6383;50.830;7.210;2023-09-12T07:23:08;19.67;;;13.07;;
12635;SDS011;6383;50.830;7.210;2023-09-12T07:25:37;14.90;;;12.07;;
12635;SDS011;6383;50.830;7.210;2023-09-12T07:28:07;15.85;;;11.43;;
12635;SDS011;6383;50.830;7.210;2023-09-12T07:30:34;16.40;;;11.13;;
12635;SDS011;6383;50.830;7.210;2023-09-12T07:33:03;16.42;;;10.88;;
12635;SDS011;6383;50.830;7.210;2023-09-12T07:35:31;12.57;;;10.23;;
12635;SDS011;6383;50.830;7.210;2023-09-12T07:38:02;12.65;;;9.45;;
12635;SDS011;6383;50.830;7.210;2023-09-12T07:40:29;11.82;;;9.10;;
12635;SDS011;6383;50.830;7.210;2023-09-12T07:42:57;10.95;;;9.00;;
12635;SDS011;6383;50.830;7.210;2023-09-12T07:45:25;11.55;;;8.57;;
12635;SDS011;6383;50.830;7.210;2023-09-12T07:47:59;11.48;;;9.20;;
12635;SDS011;6383;50.830;7.210;2023-09-12T07:50:26;11.85;;;9.90;;
12635;SDS011;6383;50.830;7.210;2023-09-12T07:53:03;12.80;;;10.02;;
12635;SDS011;6383;50.830;7.210;2023-09-12T07:55:36;11.98;;;9.43;;
12635;SDS011;6383;50.830;7.210;2023-09-12T07:58:11;10.57;;;8.93;;
12635;SDS011;6383;50.830;7.210;2023-09-12T08:00:40;10.23;;;9.05;;
12635;SDS011;6383;50.830;7.210;2023-09-12T08:03:09;11.02;;;9.00;;
12635;SDS011;6383;50.830;7.210;2023-09-12T08:05:37;11.70;;;8.85;;
12635;SDS011;6383;50.830;7.210;2023-09-12T08:08:08;11.87;;;8.83;;
12635;SDS011;6383;50.830;7.210;2023-09-12T08:10:36;12.63;;;9.10;;
12635;SDS011;6383;50.830;7.210;2023-09-12T08:13:05;14.10;;;9.43;;
12635;SDS011;6383;50.830;7.210;2023-09-12T08:15:32;13.27;;;8.73;;
12635;SDS011;6383;50.830;7.210;2023-09-12T08:18:00;10.88;;;8.50;;
12635;SDS011;6383;50.830;7.210;2023-09-12T08:20:28;10.82;;;8.48;;
12635;SDS011;6383;50.830;7.210;2023-09-12T08:22:57;13.77;;;8.65;;
12635;SDS011;6383;50.830;7.210;2023-09-12T08:25:27;12.48;;;9.32;;
12635;SDS011;6383;50.830;7.210;2023-09-12T08:27:56;13.93;;;9.02;;
12635;SDS011;6383;50.830;7.210;2023-09-12T08:30:25;10.45;;;8.30;;
12635;SDS011;6383;50.830;7.210;2023-09-12T08:32:54;12.93;;;9.88;;
12635;SDS011;6383;50.830;7.210;2023-09-12T08:35:23;13.05;;;9.05;;
12635;SDS011;6383;50.830;7.210;2023-09-12T08:37:54;14.80;;;9.05;;
12635;SDS011;6383;50.830;7.210;2023-09-12T08:40:23;15.45;;;9.35;;
12635;SDS011;6383;50.830;7.210;2023-09-12T08:42:55;17.55;;;9.50;;
12635;SDS011;6383;50.830;7.210;2023-09-12T08:45:39;14.00;;;8.93;;
12635;SDS011;6383;50.830;7.210;2023-09-12T08:48:08;22.73;;;9.87;;
12635;SDS011;6383;50.830;7.210;2023-09-12T08:50:38;12.47;;;10.70;;
12635;SDS011;6383;50.830;7.210;2023-09-12T08:53:08;12.52;;;9.05;;
12635;SDS011;6383;50.830;7.210;2023-09-12T08:55:37;14.53;;;9.70;;
12635;SDS011;6383;50.830;7.210;2023-09-12T08:58:06;13.57;;;9.93;;
12635;SDS011;6383;50.830;7.210;2023-09-12T09:00:35;17.52;;;10.90;;
12635;SDS011;6383;50.830;7.210;2023-09-12T09:03:05;15.60;;;9.98;;
12635;SDS011;6383;50.830;7.210;2023-09-12T09:05:34;18.50;;;9.77;;
12635;SDS011;6383;50.830;7.210;2023-09-12T09:08:04;16.00;;;10.02;;
12635;SDS011;6383;50.830;7.210;2023-09-12T09:10:33;16.55;;;10.10;;
12635;SDS011;6383;50.830;7.210;2023-09-12T09:13:03;13.90;;;9.40;;
12635;SDS011;6383;50.830;7.210;2023-09-12T09:15:35;13.10;;;8.88;;
12635;SDS011;6383;50.830;7.210;2023-09-12T09:18:08;12.60;;;8.90;;
12635;SDS011;6383;50.830;7.210;2023-09-12T09:20:39;15.18;;;10.02;;
12635;SDS011;6383;50.830;7.210;2023-09-12T09:23:09;13.98;;;11.20;;
12635;SDS011;6383;50.830;7.210;2023-09-12T09:25:39;14.77;;;10.37;;
12635;SDS011;6383;50.830;7.210;2023-09-12T09:28:15;14.23;;;9.85;;
12635;SDS011;6383;50.830;7.210;2023-09-12T09:30:47;12.47;;;9.70;;
12635;SDS011;6383;50.830;7.210;2023-09-12T09:33:18;13.70;;;10.20;;
12635;SDS011;6383;50.830;7.210;2023-09-12T09:35:48;13.35;;;10.45;;
12635;SDS011;6383;50.830;7.210;2023-09-12T09:38:21;14.00;;;10.10;;
12635;SDS011;6383;50.830;7.210;2023-09-12T09:40:50;10.75;;;9.07;;
12635;SDS011;6383;50.830;7.210;2023-09-12T09:43:19;14.65;;;9.43;;
12635;SDS011;6383;50.830;7.210;2023-09-12T09:45:49;13.65;;;8.85;;
12635;SDS011;6383;50.830;7.210;2023-09-12T09:48:18;13.75;;;8.82;;
12635;SDS011;6383;50.830;7.210;2023-09-12T09:50:47;12.82;;;8.95;;
12635;SDS011;6383;50.830;7.210;2023-09-12T09:53:17;14.13;;;9.27;;
12635;SDS011;6383;50.830;7.210;2023-09-12T09:55:49;12.45;;;8.27;;
12635;SDS011;6383;50.830;7.210;2023-09-12T09:58:26;13.43;;;8.30;;
12635;SDS011;6383;50.830;7.210;2023-09-12T10:00:55;11.82;;;9.30;;
12635;SDS011;6383;50.830;7.210;2023-09-12T10:03:23;14.35;;;9.10;;
12635;SDS011;6383;50.830;7.210;2023-09-12T10:05:57;13.85;;;7.88;;
12635;SDS011;6383;50.830;7.210;2023-09-12T10:08:32;14.23;;;8.23;;
12635;SDS011;6383;50.830;7.210;2023-09-12T10:11:03;13.80;;;8.00;;
12635;SDS011;6383;50.830;7.210;2023-09-12T10:13:33;13.23;;;8.00;;
12635;SDS011;6383;50.830;7.210;2023-09-12T10:16:12;13.18;;;7.32;;
12635;SDS011;6383;50.830;7.210;2023-09-12T10:18:43;9.57;;;6.70;;
12635;SDS011;6383;50.830;7.210;2023-09-12T10:21:20;9.02;;;6.75;;
12635;SDS011;6383;50.830;7.210;2023-09-12T10:23:51;14.55;;;6.50;;
12635;SDS011;6383;50.830;7.210;2023-09-12T10:26:22;8.90;;;6.75;;
12635;SDS011;6383;50.830;7.210;2023-09-12T10:28:51;15.88;;;6.57;;
12635;SDS011;6383;50.830;7.210;2023-09-12T10:31:22;9.48;;;6.43;;
12635;SDS011;6383;50.830;7.210;2023-09-12T10:33:52;9.98;;;6.82;;
12635;SDS011;6383;50.830;7.210;2023-09-12T10:36:22;10.35;;;6.63;;
12635;SDS011;6383;50.830;7.210;2023-09-12T10:38:53;10.60;;;6.27;;
12635;SDS011;6383;50.830;7.210;2023-09-12T10:41:23;10.10;;;6.07;;
12635;SDS011;6383;50.830;7.210;2023-09-12T10:43:51;13.17;;;5.90;;
12635;SDS011;6383;50.830;7.210;2023-09-12T10:46:27;9.80;;;5.63;;
12635;SDS011;6383;50.830;7.210;2023-09-12T10:48:56;9.73;;;5.93;;
12635;SDS011;6383;50.830;7.210;2023-09-12T10:51:28;8.02;;;5.93;;
12635;SDS011;6383;50.830;7.210;2023-09-12T10:53:55;11.13;;;6.23;;
12635;SDS011;6383;50.830;7.210;2023-09-12T10:56:23;9.45;;;5.88;;
12635;SDS011;6383;50.830;7.210;2023-09-12T10:59:09;8.75;;;6.03;;
12635;SDS011;6383;50.830;7.210;2023-09-12T11:01:43;9.00;;;5.80;;
12635;SDS011;6383;50.830;7.210;2023-09-12T11:10:20;8.15;;;5.75;;
12635;SDS011;6383;50.830;7.210;2023-09-12T11:12:51;10.77;;;6.13;;
12635;SDS011;6383;50.830;7.210;2023-09-12T11:15:24;11.82;;;6.25;;
12635;SDS011;6383;50.830;7.210;2023-09-12T11:18:02;9.38;;;6.57;;
12635;SDS011;6383;50.830;7.210;2023-09-12T11:20:49;11.80;;;6.55;;
12635;SDS011;6383;50.830;7.210;2023-09-12T11:23:19;18.13;;;9.20;;
12635;SDS011;6383;50.830;7.210;2023-09-12T11:25:48;17.33;;;9.30;;
12635;SDS011;6383;50.830;7.210;2023-09-12T11:28:30;10.88;;;6.85;;
12635;SDS011;6383;50.830;7.210;2023-09-12T11:31:03;11.68;;;5.97;;
12635;SDS011;6383;50.830;7.210;2023-09-12T11:33:32;12.63;;;6.68;;
12635;SDS011;6383;50.830;7.210;2023-09-12T11:36:02;11.30;;;6.50;;
12635;SDS011;6383;50.830;7.210;2023-09-12T11:38:36;10.65;;;7.10;;
12635;SDS011;6383;50.830;7.210;2023-09-12T11:41:03;10.07;;;5.90;;
12635;SDS011;6383;50.830;7.210;2023-09-12T11:43:32;10.53;;;6.00;;
12635;SDS011;6383;50.830;7.210;2023-09-12T11:46:06;8.70;;;6.55;;
12635;SDS011;6383;50.830;7.210;2023-09-12T11:48:38;11.27;;;7.38;;
12635;SDS011;6383;50.830;7.210;2023-09-12T11:51:07;13.98;;;8.57;;
12635;SDS011;6383;50.830;7.210;2023-09-12T11:53:37;10.40;;;7.35;;
12635;SDS011;6383;50.830;7.210;2023-09-12T11:56:05;15.30;;;13.45;;
12635;SDS011;6383;50.830;7.210;2023-09-12T11:58:34;11.05;;;7.55;;
12635;SDS011;6383;50.830;7.210;2023-09-12T12:01:03;11.50;;;7.45;;
12635;SDS011;6383;50.830;7.210;2023-09-12T12:03:33;10.55;;;6.88;;
12635;SDS011;6383;50.830;7.210;2023-09-12T12:06:04;10.07;;;6.53;;
12635;SDS011;6383;50.830;7.210;2023-09-12T12:08:33;11.23;;;6.35;;
12635;SDS011;6383;50.830;7.210;2023-09-12T12:11:02;10.30;;;6.03;;
12635;SDS011;6383;50.830;7.210;2023-09-12T12:13:32;8.60;;;6.32;;
12635;SDS011;6383;50.830;7.210;2023-09-12T12:16:13;9.23;;;6.10;;
12635;SDS011;6383;50.830;7.210;2023-09-12T12:18:43;10.30;;;5.70;;
12635;SDS011;6383;50.830;7.210;2023-09-12T12:21:13;8.57;;;5.88;;
12635;SDS011;6383;50.830;7.210;2023-09-12T12:23:43;8.65;;;5.70;;
12635;SDS011;6383;50.830;7.210;2023-09-12T12:26:12;9.25;;;5.80;;
12635;SDS011;6383;50.830;7.210;2023-09-12T12:28:40;9.40;;;5.45;;
12635;SDS011;6383;50.830;7.210;2023-09-12T12:31:08;12.10;;;5.55;;
12635;SDS011;6383;50.830;7.210;2023-09-12T12:33:36;10.20;;;5.60;;
12635;SDS011;6383;50.830;7.210;2023-09-12T12:36:04;15.60;;;10.48;;
12635;SDS011;6383;50.830;7.210;2023-09-12T12:38:36;14.93;;;13.30;;
12635;SDS011;6383;50.830;7.210;2023-09-12T12:41:06;11.88;;;10.68;;
12635;SDS011;6383;50.830;7.210;2023-09-12T12:43:34;11.95;;;7.32;;
12635;SDS011;6383;50.830;7.210;2023-09-12T12:46:04;7.28;;;4.93;;
12635;SDS011;6383;50.830;7.210;2023-09-12T12:48:38;9.30;;;5.78;;
12635;SDS011;6383;50.830;7.210;2023-09-12T12:51:13;9.57;;;5.75;;
12635;SDS011;6383;50.830;7.210;2023-09-12T12:53:44;8.32;;;5.47;;
12635;SDS011;6383;50.830;7.210;2023-09-12T12:56:14;8.77;;;6.95;;
12635;SDS011;6383;50.830;7.210;2023-09-12T12:58:46;13.52;;;12.20;;
12635;SDS011;6383;50.830;7.210;2023-09-12T13:01:16;12.75;;;9.73;;
12635;SDS011;6383;50.830;7.210;2023-09-12T13:03:47;8.13;;;7.20;;
12635;SDS011;6383;50.830;7.210;2023-09-12T13:06:16;8.73;;;5.30;;
12635;SDS011;6383;50.830;7.210;2023-09-12T13:08:47;6.93;;;5.57;;
12635;SDS011;6383;50.830;7.210;2023-09-12T13:11:17;11.85;;;7.90;;
12635;SDS011;6383;50.830;7.210;2023-09-12T13:13:46;6.32;;;5.03;;
12635;SDS011;6383;50.830;7.210;2023-09-12T13:16:16;13.57;;;11.13;;
12635;SDS011;6383;50.830;7.210;2023-09-12T13:18:45;8.88;;;7.43;;
12635;SDS011;6383;50.830;7.210;2023-09-12T13:21:16;7.53;;;5.28;;
12635;SDS011;6383;50.830;7.210;2023-09-12T13:23:45;7.28;;;4.95;;
12635;SDS011;6383;50.830;7.210;2023-09-12T13:26:17;8.40;;;6.07;;
12635;SDS011;6383;50.830;7.210;2023-09-12T13:28:47;6.45;;;4.82;;
12635;SDS011;6383;50.830;7.210;2023-09-12T13:31:15;6.30;;;4.65;;
12635;SDS011;6383;50.830;7.210;2023-09-12T13:33:45;7.47;;;5.18;;
12635;SDS011;6383;50.830;7.210;2023-09-12T13:36:14;6.45;;;4.55;;
12635;SDS011;6383;50.830;7.210;2023-09-12T13:38:43;5.07;;;4.20;;
12635;SDS011;6383;50.830;7.210;2023-09-12T13:41:14;5.57;;;4.40;;
12635;SDS011;6383;50.830;7.210;2023-09-12T13:43:42;7.93;;;5.07;;
12635;SDS011;6383;50.830;7.210;2023-09-12T13:46:12;8.02;;;5.32;;
12635;SDS011;6383;50.830;7.210;2023-09-12T13:48:43;7.07;;;4.78;;
12635;SDS011;6383;50.830;7.210;2023-09-12T13:51:11;8.15;;;4.60;;
12635;SDS011;6383;50.830;7.210;2023-09-12T13:53:42;6.28;;;4.28;;
12635;SDS011;6383;50.830;7.210;2023-09-12T13:56:11;5.88;;;4.22;;
12635;SDS011;6383;50.830;7.210;2023-09-12T13:58:38;6.10;;;4.30;;
12635;SDS011;6383;50.830;7.210;2023-09-12T14:01:07;8.10;;;4.43;;
12635;SDS011;6383;50.830;7.210;2023-09-12T14:03:36;5.70;;;5.10;;
12635;SDS011;6383;50.830;7.210;2023-09-12T14:06:04;8.33;;;5.13;;
12635;SDS011;6383;50.830;7.210;2023-09-12T14:08:33;5.97;;;4.50;;
12635;SDS011;6383;50.830;7.210;2023-09-12T14:11:02;5.43;;;4.57;;
12635;SDS011;6383;50.830;7.210;2023-09-12T14:13:31;6.60;;;4.73;;
12635;SDS011;6383;50.830;7.210;2023-09-12T14:16:03;7.30;;;4.75;;
12635;SDS011;6383;50.830;7.210;2023-09-12T14:18:34;8.15;;;4.82;;
12635;SDS011;6383;50.830;7.210;2023-09-12T14:21:04;6.07;;;5.10;;
12635;SDS011;6383;50.830;7.210;2023-09-12T14:23:32;6.90;;;5.00;;
12635;SDS011;6383;50.830;7.210;2023-09-12T14:26:00;6.00;;;4.47;;
12635;SDS011;6383;50.830;7.210;2023-09-12T14:28:29;7.50;;;4.65;;
12635;SDS011;6383;50.830;7.210;2023-09-12T14:30:59;6.15;;;4.93;;
12635;SDS011;6383;50.830;7.210;2023-09-12T14:33:31;7.88;;;5.30;;
12635;SDS011;6383;50.830;7.210;2023-09-12T14:36:00;8.60;;;4.75;;
12635;SDS011;6383;50.830;7.210;2023-09-12T14:38:31;6.03;;;5.00;;
12635;SDS011;6383;50.830;7.210;2023-09-12T14:41:01;6.60;;;4.80;;
12635;SDS011;6383;50.830;7.210;2023-09-12T14:43:29;7.47;;;4.38;;
12635;SDS011;6383;50.830;7.210;2023-09-12T14:46:00;6.78;;;4.55;;
12635;SDS011;6383;50.830;7.210;2023-09-12T14:48:31;5.03;;;4.38;;
12635;SDS011;6383;50.830;7.210;2023-09-12T14:51:02;7.80;;;4.90;;
12635;SDS011;6383;50.830;7.210;2023-09-12T14:53:32;7.22;;;4.93;;
12635;SDS011;6383;50.830;7.210;2023-09-12T14:56:03;6.53;;;5.30;;
12635;SDS011;6383;50.830;7.210;2023-09-12T14:58:34;7.85;;;4.90;;
12635;SDS011;6383;50.830;7.210;2023-09-12T15:01:05;8.40;;;4.60;;
12635;SDS011;6383;50.830;7.210;2023-09-12T15:03:34;8.48;;;6.22;;
12635;SDS011;6383;50.830;7.210;2023-09-12T15:06:05;7.30;;;5.43;;
12635;SDS011;6383;50.830;7.210;2023-09-12T15:08:34;6.60;;;4.70;;
12635;SDS011;6383;50.830;7.210;2023-09-12T15:11:04;6.70;;;4.40;;
12635;SDS011;6383;50.830;7.210;2023-09-12T15:13:33;7.57;;;4.85;;
12635;SDS011;6383;50.830;7.210;2023-09-12T15:16:03;6.07;;;4.00;;
12635;SDS011;6383;50.830;7.210;2023-09-12T15:18:33;5.37;;;4.53;;
12635;SDS011;6383;50.830;7.210;2023-09-12T15:21:06;4.63;;;4.03;;